Time;durP1;ratioP1;P1;durP2;ratioP2;P2;SDS_P1;SDS_P2;PMS_P1;PMS_P2;Temp;Humidity;BMP_temperature;BMP_pressure;BME280_temperature;BME280_humidity;BME280_pressure;Samples;Min_cycle;Max_cycle;Signal;HPM_P1;HPM_P2
2021/07/22 00:02:15;;;;;;;0.10;0.10;;;;;;;25.86;36.99;99125.28;5052759;28;20049;-59
2021/07/22 00:04:41;;;;;;;0.20;0.20;;;;;;;25.85;37.01;99128.97;5052971;28;20055;-59
2021/07/22 00:07:07;;;;;;;0.00;0.00;;;;;;;25.85;37.15;99125.50;5052623;28;20423;-58
2021/07/22 00:09:33;;;;;;;0.17;0.17;;;;;;;25.84;37.19;99138.06;5052804;28;20064;-57
2021/07/22 00:12:00;;;;;;;0.00;0.00;;;;;;;25.80;37.06;99127.94;5052477;28;20045;-59
2021/07/22 00:14:28;;;;;;;0.00;0.00;;;;;;;25.81;36.95;99130.44;5052711;28;20041;-59
2021/07/22 00:16:54;;;;;;;0.10;0.10;;;;;;;25.76;37.20;99132.03;5052645;28;20056;-59
2021/07/22 00:19:20;;;;;;;0.00;0.00;;;;;;;25.75;37.10;99133.06;5052492;28;20420;-59
2021/07/22 00:21:46;;;;;;;0.00;0.00;;;;;;;25.74;37.10;99144.78;5052515;28;20067;-59
2021/07/22 00:24:12;;;;;;;0.00;0.00;;;;;;;25.72;37.18;99139.63;5052641;28;20573;-59
2021/07/22 00:26:38;;;;;;;0.10;0.10;;;;;;;25.70;37.21;99143.53;5052344;28;20067;-59
2021/07/22 00:29:04;;;;;;;0.00;0.00;;;;;;;25.63;37.33;99142.66;5052423;28;20056;-59
2021/07/22 00:31:31;;;;;;;0.00;0.00;;;;;;;25.66;37.32;99153.78;5062630;28;20172;-59
2021/07/22 00:33:57;;;;;;;0.00;0.00;;;;;;;25.64;37.37;99149.66;5072420;28;20048;-58
2021/07/22 00:36:23;;;;;;;0.00;0.00;;;;;;;25.54;37.26;99138.50;5072023;28;20468;-58
2021/07/22 00:38:49;;;;;;;0.10;0.10;;;;;;;25.61;37.52;99150.06;5071242;28;20434;-57
2021/07/22 00:41:15;;;;;;;0.00;0.00;;;;;;;25.58;37.35;99151.28;5071997;28;20036;-57
2021/07/22 00:43:41;;;;;;;0.10;0.10;;;;;;;25.57;37.59;99154.97;5054386;28;20538;-57
2021/07/22 00:46:09;;;;;;;0.10;0.10;;;;;;;25.54;37.42;99150.03;5071827;28;20477;-56
2021/07/22 00:48:36;;;;;;;0.15;0.15;;;;;;;25.53;37.43;99159.06;5037910;28;20048;-58
2021/07/22 00:51:03;;;;;;;0.00;0.00;;;;;;;25.48;37.54;99150.78;5054396;28;20510;-58
2021/07/22 00:53:29;;;;;;;0.10;0.10;;;;;;;25.50;37.52;99153.28;5071486;28;20045;-57
2021/07/22 00:55:59;;;;;;;;;;;;;;;25.49;37.74;99155.09;5054568;28;20048;-57
2021/07/22 00:58:25;;;;;;;0.00;0.00;;;;;;;25.45;37.68;99145.84;5071773;28;20348;-57
2021/07/22 01:00:51;;;;;;;0.05;0.05;;;;;;;25.48;37.70;99150.78;5071970;28;20082;-57
2021/07/22 01:03:18;;;;;;;0.00;0.00;;;;;;;25.46;37.63;99147.47;5071528;28;20541;-57
2021/07/22 01:05:47;;;;;;;0.00;0.00;;;;;;;25.43;37.69;99163.91;5087299;28;20053;-57
2021/07/22 01:08:13;;;;;;;0.00;0.00;;;;;;;25.45;37.54;99166.38;5087126;28;20041;-57
2021/07/22 01:10:40;;;;;;;0.20;0.20;;;;;;;25.42;37.63;99165.75;5053979;28;20084;-57
2021/07/22 01:13:06;;;;;;;0.05;0.05;;;;;;;25.41;37.57;99168.63;5071644;28;20506;-57
2021/07/22 01:15:32;;;;;;;0.05;0.05;;;;;;;25.42;37.58;99175.63;5071506;28;20091;-57
2021/07/22 01:17:59;;;;;;;0.10;0.10;;;;;;;25.41;37.63;99165.97;5071507;28;20131;-58
2021/07/22 01:20:27;;;;;;;0.10;0.10;;;;;;;25.42;37.52;99167.63;5071158;28;20140;-57
2021/07/22 01:22:55;;;;;;;0.10;0.10;;;;;;;25.42;37.61;99182.81;5053511;28;20049;-57
2021/07/22 01:25:24;;;;;;;0.00;0.00;;;;;;;25.41;37.44;99171.31;5053843;28;20076;-56
2021/07/22 01:27:52;;;;;;;0.00;0.00;;;;;;;25.44;37.62;99186.94;5037293;28;20490;-57
2021/07/22 01:30:19;;;;;;;0.00;0.00;;;;;;;25.46;37.42;99192.13;5052977;28;20059;-55
2021/07/22 01:32:45;;;;;;;0.10;0.10;;;;;;;25.47;37.23;99185.72;5070014;28;20114;-57
2021/07/22 01:35:12;;;;;;;0.10;0.10;;;;;;;25.46;37.28;99178.75;5070980;28;20051;-58
2021/07/22 01:37:40;;;;;;;0.10;0.10;;;;;;;25.49;37.20;99179.16;5053310;28;20048;-55
2021/07/22 01:40:08;;;;;;;0.10;0.10;;;;;;;25.51;37.15;99181.69;5053345;28;20049;-56
2021/07/22 01:42:35;;;;;;;0.00;0.00;;;;;;;25.71;36.77;99186.13;5071078;28;20472;-56
2021/07/22 01:45:03;;;;;;;0.10;0.10;;;;;;;26.08;36.25;99179.50;5053342;28;20071;-56
2021/07/22 01:47:29;;;;;;;0.10;0.10;;;;;;;26.42;35.55;99174.09;5052864;28;20060;-58
2021/07/22 01:49:55;;;;;;;0.10;0.10;;;;;;;26.72;34.93;99182.59;5053311;28;20075;-57
2021/07/22 01:52:22;;;;;;;0.00;0.00;;;;;;;26.95;34.43;99176.06;5070619;28;20037;-57
2021/07/22 01:54:50;;;;;;;0.10;0.10;;;;;;;27.13;33.83;99178.94;5053244;28;20541;-57
2021/07/22 01:57:19;;;;;;;0.10;0.10;;;;;;;27.33;33.75;99185.94;5069244;28;20040;-57
2021/07/22 01:59:45;;;;;;;0.10;0.10;;;;;;;27.52;33.28;99183.47;5069715;28;20049;-56
2021/07/22 02:02:12;;;;;;;0.10;0.10;;;;;;;27.71;33.07;99185.28;5052640;28;20102;-58
2021/07/22 02:04:39;;;;;;;0.10;0.10;;;;;;;27.92;32.51;99185.00;5069850;28;20135;-56
2021/07/22 02:07:07;;;;;;;0.10;0.10;;;;;;;28.08;31.98;99184.56;5070576;28;20064;-57
2021/07/22 02:09:41;;;;;;;0.10;0.10;;;;;;;28.25;31.79;99169.63;5038599;28;20577;-58
2021/07/22 02:12:09;;;;;;;0.10;0.10;;;;;;;28.44;31.32;99184.78;5069292;28;20560;-58
2021/07/22 02:14:36;;;;;;;0.10;0.10;;;;;;;28.59;31.04;99184.53;5052928;28;20174;-58
2021/07/22 02:17:04;;;;;;;0.10;0.10;;;;;;;28.76;30.86;99187.53;5070428;28;20132;-58
2021/07/22 02:19:30;;;;;;;0.10;0.10;;;;;;;28.97;30.64;99184.47;5052414;28;20059;-58
2021/07/22 02:21:59;;;;;;;0.10;0.10;;;;;;;29.19;30.00;99179.56;5036367;28;20044;-58
2021/07/22 02:24:26;;;;;;;0.10;0.10;;;;;;;29.39;29.71;99177.53;5052332;28;20044;-58
2021/07/22 02:27:03;;;;;;;0.10;0.10;;;;;;;29.59;29.37;99188.91;5052333;28;20052;-58
2021/07/22 02:29:31;;;;;;;0.10;0.10;;;;;;;29.78;29.16;99182.50;5070033;28;20049;-58
2021/07/22 02:31:57;;;;;;;0.10;0.10;;;;;;;29.95;28.90;99191.66;5052091;28;20051;-59
2021/07/22 02:34:24;;;;;;;0.17;0.17;;;;;;;30.11;28.61;99184.00;5068690;28;20395;-59
2021/07/22 02:36:54;;;;;;;0.20;0.20;;;;;;;30.30;28.20;99193.72;5068847;28;20052;-59
2021/07/22 02:39:27;;;;;;;0.17;0.17;;;;;;;30.49;27.92;99195.34;5052103;28;20051;-59
2021/07/22 02:41:55;;;;;;;0.20;0.20;;;;;;;30.62;27.70;99189.78;5052145;28;20143;-59
2021/07/22 02:44:21;;;;;;;0.10;0.10;;;;;;;30.76;27.66;99193.09;5068458;28;20052;-58
2021/07/22 02:47:00;;;;;;;0.10;0.10;;;;;;;30.92;27.30;99201.31;5051956;28;20060;-58
2021/07/22 02:49:30;;;;;;;0.10;0.10;;;;;;;31.05;26.79;99202.22;5051958;28;20583;-59
2021/07/22 02:51:58;;;;;;;0.10;0.10;;;;;;;31.21;26.73;99204.25;5068670;28;20052;-59
2021/07/22 02:54:26;;;;;;;0.10;0.10;;;;;;;31.28;26.45;99189.56;5068435;28;20049;-59
2021/07/22 02:56:52;;;;;;;0.20;0.20;;;;;;;31.56;26.30;99218.59;5051901;28;20128;-59
2021/07/22 02:59:23;;;;;;;0.10;0.10;;;;;;;31.70;25.86;99209.22;5051625;28;20151;-59
2021/07/22 03:01:53;;;;;;;0.10;0.10;;;;;;;31.84;25.67;99215.97;5068616;28;20167;-59
2021/07/22 03:04:21;;;;;;;0.10;0.10;;;;;;;31.92;25.76;99210.22;5068289;28;20443;-59
2021/07/22 03:07:00;;;;;;;0.22;0.22;;;;;;;32.08;25.17;99211.38;5069771;28;20139;-59
2021/07/22 03:09:27;;;;;;;0.20;0.20;;;;;;;32.19;25.06;99217.84;5051867;28;20526;-59
2021/07/22 03:11:53;;;;;;;0.20;0.20;;;;;;;32.30;24.65;99225.06;5051840;28;20068;-59
2021/07/22 03:14:20;;;;;;;0.20;0.20;;;;;;;32.40;24.79;99234.19;5068220;28;20083;-59
2021/07/22 03:16:46;;;;;;;0.15;0.15;;;;;;;32.52;24.52;99234.19;5051660;28;20084;-59
2021/07/22 03:19:19;;;;;;;0.10;0.10;;;;;;;32.57;24.11;99234.28;5051459;28;20044;-59
2021/07/22 03:22:08;;;;;;;0.10;0.10;;;;;;;32.69;24.12;99240.47;5055214;28;20052;-59
2021/07/22 03:24:51;;;;;;;0.10;0.10;;;;;;;32.73;24.08;99236.22;5037353;28;20056;-59
2021/07/22 03:27:36;;;;;;;0.30;0.30;;;;;;;32.91;23.84;99248.72;5069051;28;20139;-57
2021/07/22 03:30:03;;;;;;;1.10;1.08;;;;;;;33.00;23.63;99245.38;5069200;28;20044;-57
2021/07/22 03:32:36;;;;;;;0.15;0.15;;;;;;;33.08;23.54;99254.16;5067623;28;20057;-56
2021/07/22 03:35:03;;;;;;;0.10;0.10;;;;;;;33.14;23.25;99255.91;5068169;28;20052;-57
2021/07/22 03:37:36;;;;;;;0.17;0.17;;;;;;;33.15;22.84;99244.81;5067943;28;20056;-58
2021/07/22 03:40:07;;;;;;;0.20;0.20;;;;;;;33.14;22.84;99253.22;5051490;28;20053;-58
2021/07/22 03:42:34;;;;;;;0.10;0.10;;;;;;;33.27;23.01;99261.00;5051135;28;20403;-58
2021/07/22 03:45:00;;;;;;;0.65;0.65;;;;;;;33.33;22.86;99265.44;5069340;28;20127;-58
2021/07/22 03:47:28;;;;;;;0.10;0.10;;;;;;;33.37;22.36;99269.31;5051000;28;20064;-58
2021/07/22 03:49:57;;;;;;;0.20;0.20;;;;;;;33.37;22.21;99253.88;5051375;28;20091;-59
2021/07/22 03:52:42;;;;;;;0.20;0.20;;;;;;;33.41;21.90;99275.88;5051313;28;20040;-58
2021/07/22 03:55:11;;;;;;;0.10;0.10;;;;;;;33.41;22.26;99267.75;5051302;28;20057;-58
2021/07/22 03:58:15;;;;;;;0.30;0.30;;;;;;;33.43;21.66;99263.72;4987294;28;20050;-60
2021/07/22 04:00:54;;;;;;;0.10;0.10;;;;;;;33.50;21.63;99264.38;4987633;28;20432;-59
2021/07/22 04:03:21;;;;;;;0.20;0.20;;;;;;;33.54;21.92;99270.91;5024131;28;20051;-59
2021/07/22 04:05:47;;;;;;;0.10;0.10;;;;;;;33.54;21.68;99272.84;5067876;28;20548;-59
2021/07/22 04:08:14;;;;;;;0.10;0.10;;;;;;;33.59;21.53;99269.38;5051066;28;20048;-58
2021/07/22 04:10:52;;;;;;;0.20;0.20;;;;;;;33.61;21.65;99265.38;5069184;28;20049;-57
2021/07/22 04:13:36;;;;;;;0.20;0.20;;;;;;;33.68;21.55;99273.31;5068913;28;20530;-59
2021/07/22 04:16:23;;;;;;;0.10;0.10;;;;;;;33.71;21.26;99259.28;5069099;28;20041;-59
2021/07/22 04:19:07;;;;;;;0.20;0.20;;;;;;;33.80;21.48;99274.84;5068399;28;20079;-59
2021/07/22 04:22:06;;;;;;;0.20;0.20;;;;;;;33.85;21.29;99274.94;5057421;28;20102;-57
2021/07/22 04:24:42;;;;;;;0.15;0.15;;;;;;;33.91;21.13;99271.25;5052656;28;20094;-60
2021/07/22 04:27:27;;;;;;;0.22;0.22;;;;;;;33.98;20.87;99280.00;5067495;28;20044;-60
2021/07/22 04:30:02;;;;;;;0.20;0.20;;;;;;;34.09;20.72;99277.44;5072712;28;20056;-60
2021/07/22 04:32:37;;;;;;;0.17;0.17;;;;;;;34.19;20.96;99277.63;5070788;28;20202;-58
2021/07/22 04:35:23;;;;;;;0.50;0.50;;;;;;;34.27;20.63;99279.88;5030813;28;20135;-58
2021/07/22 04:38:07;;;;;;;0.13;0.13;;;;;;;34.30;20.30;99268.53;5054527;28;20053;-59
2021/07/22 04:40:53;;;;;;;0.20;0.20;;;;;;;34.35;20.39;99271.31;5072314;28;20048;-59
2021/07/22 04:43:51;;;;;;;0.20;0.20;;;;;;;34.38;20.23;99284.38;5056833;28;20059;-59
2021/07/22 04:46:36;;;;;;;0.20;0.20;;;;;;;34.38;20.29;99278.94;5071910;28;20059;-58
2021/07/22 04:49:23;;;;;;;0.20;0.20;;;;;;;34.42;19.94;99293.63;5050260;28;20587;-59
2021/07/22 04:52:13;;;;;;;0.15;0.15;;;;;;;34.40;19.79;99284.91;5072060;28;20514;-58
2021/07/22 04:55:02;;;;;;;0.20;0.20;;;;;;;34.51;19.93;99276.66;5054366;28;20413;-58
2021/07/22 04:57:29;;;;;;;0.13;0.13;;;;;;;34.59;19.72;99285.44;5071720;28;20510;-58
2021/07/22 04:59:57;;;;;;;0.20;0.20;;;;;;;34.65;19.66;99293.41;5072026;28;20525;-58
2021/07/22 05:02:27;;;;;;;0.10;0.10;;;;;;;34.58;19.99;99275.66;5053726;28;20049;-57
2021/07/22 05:04:52;;;;;;;0.20;0.20;;;;;;;34.56;19.79;99284.03;5071979;28;20051;-59
2021/07/22 05:07:19;;;;;;;0.20;0.20;;;;;;;34.59;19.67;99286.22;5070491;28;20091;-59
2021/07/22 05:09:52;;;;;;;0.13;0.13;;;;;;;34.66;19.56;99295.03;5054986;28;20066;-59
2021/07/22 05:12:23;;;;;;;0.15;0.15;;;;;;;34.66;19.29;99289.59;5070232;28;20072;-58
2021/07/22 05:15:00;;;;;;;0.10;0.10;;;;;;;34.80;19.22;99290.03;5053789;28;20430;-59
2021/07/22 05:17:53;;;;;;;0.10;0.10;;;;;;;34.86;19.56;99291.72;5045010;28;20040;-59
2021/07/22 05:20:38;;;;;;;0.10;0.10;;;;;;;34.90;19.16;99285.53;5071433;28;20135;-59
2021/07/22 05:23:12;;;;;;;0.20;0.20;;;;;;;34.84;19.09;99286.56;5054952;28;20048;-59
2021/07/22 05:26:05;;;;;;;0.10;0.10;;;;;;;34.70;19.02;99277.19;5047650;28;20055;-58
2021/07/22 05:28:49;;;;;;;0.17;0.17;;;;;;;34.83;18.98;99295.78;5071454;28;20049;-59
2021/07/22 05:31:42;;;;;;;0.20;0.20;;;;;;;34.90;19.03;99290.97;5065013;28;20083;-58
2021/07/22 05:34:24;;;;;;;0.20;0.20;;;;;;;34.94;18.77;99281.25;5053146;28;20521;-58
2021/07/22 05:37:13;;;;;;;0.20;0.20;;;;;;;35.15;18.83;99293.13;5040068;28;20044;-58
2021/07/22 05:39:50;;;;;;;0.10;0.10;;;;;;;35.17;18.75;99288.28;5070129;28;20479;-58
2021/07/22 05:42:16;;;;;;;0.10;0.10;;;;;;;35.15;18.81;99295.84;5053082;28;20706;-58
2021/07/22 05:44:42;;;;;;;0.13;0.13;;;;;;;35.16;18.73;99300.19;5070906;28;20045;-58
2021/07/22 05:47:08;;;;;;;0.10;0.10;;;;;;;35.06;18.62;99294.66;5071078;28;20052;-58
2021/07/22 05:49:34;;;;;;;0.10;0.10;;;;;;;35.00;18.45;99290.25;5052937;28;20447;-58
2021/07/22 05:52:00;;;;;;;0.10;0.10;;;;;;;34.86;18.32;99273.53;5071057;28;20037;-58
2021/07/22 05:54:27;;;;;;;0.40;0.40;;;;;;;34.90;18.35;99285.53;5070595;28;20053;-59
2021/07/22 05:56:53;;;;;;;0.20;0.20;;;;;;;34.93;18.03;99292.34;5070870;28;20078;-59
2021/07/22 05:59:19;;;;;;;0.10;0.10;;;;;;;34.79;17.96;99277.53;5070797;28;20058;-58
2021/07/22 06:01:45;;;;;;;0.10;0.10;;;;;;;34.76;17.85;99297.03;5070515;28;20434;-58
2021/07/22 06:04:11;;;;;;;0.10;0.10;;;;;;;34.73;18.18;99289.41;5070807;28;20056;-59
2021/07/22 06:06:39;;;;;;;0.13;0.13;;;;;;;34.74;17.92;99294.59;5070235;28;20064;-59
2021/07/22 06:09:05;;;;;;;0.13;0.13;;;;;;;34.70;17.92;99296.16;5070790;28;20052;-59
2021/07/22 06:11:32;;;;;;;0.10;0.10;;;;;;;34.75;17.85;99293.50;5052483;28;20150;-58
2021/07/22 06:13:57;;;;;;;1.00;0.40;;;;;;;34.71;17.56;99300.53;5070472;28;20102;-58
2021/07/22 06:16:24;;;;;;;0.10;0.10;;;;;;;34.75;17.38;99304.34;5070499;28;20520;-58
2021/07/22 06:18:50;;;;;;;0.10;0.10;;;;;;;34.83;17.34;99309.34;5070415;28;20048;-58
2021/07/22 06:21:16;;;;;;;0.10;0.10;;;;;;;34.84;17.16;99297.41;5070443;28;20512;-59
2021/07/22 06:23:42;;;;;;;0.10;0.10;;;;;;;34.94;17.32;99302.94;5070046;28;20048;-59
2021/07/22 06:26:08;;;;;;;0.10;0.10;;;;;;;35.01;17.23;99279.13;5070275;28;20047;-59
2021/07/22 06:28:34;;;;;;;0.10;0.10;;;;;;;35.43;16.72;99297.47;5052249;28;20052;-58
2021/07/22 06:31:00;;;;;;;0.10;0.10;;;;;;;36.12;16.13;99297.44;5070134;28;20037;-59
2021/07/22 06:33:26;;;;;;;0.20;0.20;;;;;;;38.98;13.78;99298.56;5069942;28;20453;-59
2021/07/22 06:35:52;;;;;;;0.50;0.50;;;;;;;43.58;10.48;99299.63;5070220;28;20051;-58
2021/07/22 06:38:18;;;;;;;0.70;0.70;;;;;;;46.27;8.43;99302.06;5069895;28;20488;-58
2021/07/22 06:40:46;;;;;;;0.85;0.85;;;;;;;47.72;7.39;99296.53;5068649;28;20837;-58
2021/07/22 06:43:12;;;;;;;0.60;0.60;;;;;;;48.74;6.83;99301.88;5070114;28;20139;-59
2021/07/22 06:45:41;;;;;;;0.50;0.50;;;;;;;49.17;6.26;99298.41;5069652;28;20043;-59
2021/07/22 06:48:08;;;;;;;0.45;0.45;;;;;;;49.27;6.08;99303.47;5052097;28;20062;-59
2021/07/22 06:50:34;;;;;;;0.40;0.40;;;;;;;49.26;6.22;99287.97;5069443;28;20533;-59
2021/07/22 06:53:04;;;;;;;0.30;0.30;;;;;;;49.00;6.33;99299.53;5068506;28;20097;-59
2021/07/22 06:55:31;;;;;;;0.32;0.32;;;;;;;49.01;6.20;99280.91;5069677;28;20048;-59
2021/07/22 06:58:07;;;;;;;0.35;0.35;;;;;;;47.86;6.93;99279.56;5051844;28;20071;-59
2021/07/22 07:00:33;;;;;;;0.20;0.20;;;;;;;44.18;8.73;99290.91;5069635;28;20051;-59
2021/07/22 07:03:04;;;;;;;0.10;0.10;;;;;;;40.66;11.35;99282.19;5069540;28;20399;-58
2021/07/22 07:05:31;;;;;;;0.10;0.10;;;;;;;38.48;13.29;99299.59;5069494;28;20058;-59
2021/07/22 07:07:57;;;;;;;0.10;0.10;;;;;;;36.96;14.35;99290.72;5069585;28;20087;-60
2021/07/22 07:10:24;;;;;;;0.10;0.10;;;;;;;36.15;15.12;99286.88;5069628;28;20883;-59
2021/07/22 07:12:50;;;;;;;0.10;0.10;;;;;;;35.43;15.56;99287.41;5069315;28;20075;-59
2021/07/22 07:15:16;;;;;;;0.10;0.10;;;;;;;35.00;15.95;99290.25;5069541;28;20134;-59
2021/07/22 07:17:42;;;;;;;0.10;0.10;;;;;;;34.64;16.43;99283.63;5069225;28;20052;-59
2021/07/22 07:20:08;;;;;;;0.10;0.10;;;;;;;34.37;16.59;99285.44;5069567;28;20040;-59
2021/07/22 07:22:35;;;;;;;0.05;0.05;;;;;;;34.21;16.89;99286.31;5069084;28;20612;-59
2021/07/22 07:25:00;;;;;;;0.10;0.10;;;;;;;34.00;16.85;99290.59;5069593;28;20040;-59
2021/07/22 07:27:27;;;;;;;0.10;0.10;;;;;;;33.81;17.03;99287.34;5069160;28;20052;-58
2021/07/22 07:29:53;;;;;;;0.00;0.00;;;;;;;33.81;17.33;99292.75;5069096;28;20506;-59
2021/07/22 07:32:19;;;;;;;0.00;0.00;;;;;;;33.75;17.60;99284.81;5069025;28;20414;-59
2021/07/22 07:34:45;;;;;;;0.10;0.10;;;;;;;33.77;17.60;99290.81;5069107;28;20040;-59
2021/07/22 07:37:11;;;;;;;0.32;0.32;;;;;;;33.59;17.29;99262.06;5069176;28;20056;-59
2021/07/22 07:39:37;;;;;;;7.05;0.40;;;;;;;33.61;17.53;99291.66;5051134;28;20044;-59
2021/07/22 07:42:03;;;;;;;0.10;0.10;;;;;;;33.54;17.42;99276.34;5051331;28;20053;-59
2021/07/22 07:44:29;;;;;;;0.10;0.10;;;;;;;33.44;17.38;99265.34;5069411;28;20048;-58
2021/07/22 07:46:55;;;;;;;0.10;0.10;;;;;;;33.35;17.45;99274.94;5068777;28;20432;-58
2021/07/22 07:49:21;;;;;;;0.00;0.00;;;;;;;33.28;17.47;99268.06;5069309;28;20040;-58
2021/07/22 07:51:47;;;;;;;0.10;0.10;;;;;;;33.25;17.65;99280.19;5068905;28;20052;-58
2021/07/22 07:54:13;;;;;;;0.10;0.10;;;;;;;33.15;17.52;99279.22;5069248;28;20135;-57
2021/07/22 07:56:39;;;;;;;0.10;0.10;;;;;;;33.07;16.85;99268.75;5068817;28;20054;-58
2021/07/22 07:59:04;;;;;;;0.03;0.03;;;;;;;32.98;17.24;99274.53;5051348;28;20048;-57
2021/07/22 08:01:31;;;;;;;0.00;0.00;;;;;;;32.94;17.21;99281.53;5069142;28;20041;-58
2021/07/22 08:03:57;;;;;;;0.00;0.00;;;;;;;32.84;17.22;99283.22;5071845;28;20048;-57
2021/07/22 08:06:23;;;;;;;0.10;0.10;;;;;;;32.75;17.45;99277.38;5072880;28;20037;-57
2021/07/22 08:08:49;;;;;;;0.00;0.00;;;;;;;32.63;17.08;99290.09;5072519;28;20044;-57
2021/07/22 08:11:16;;;;;;;0.10;0.10;;;;;;;32.53;17.25;99279.88;5072904;28;20052;-58
2021/07/22 08:13:42;;;;;;;0.00;0.00;;;;;;;32.42;17.46;99280.75;5072434;28;20044;-58
2021/07/22 08:16:08;;;;;;;0.00;0.00;;;;;;;32.36;17.51;99278.97;5072803;28;20052;-57
2021/07/22 08:18:34;;;;;;;0.10;0.10;;;;;;;32.29;17.61;99275.63;5054523;28;20490;-57
2021/07/22 08:21:00;;;;;;;0.00;0.00;;;;;;;32.14;17.37;99271.75;5072729;28;20056;-58
2021/07/22 08:23:26;;;;;;;0.00;0.00;;;;;;;32.11;17.59;99286.56;5072616;28;20460;-57
2021/07/22 08:25:52;;;;;;;0.10;0.10;;;;;;;32.03;17.24;99277.97;5072319;28;20071;-57
2021/07/22 08:28:18;;;;;;;0.00;0.00;;;;;;;31.82;17.43;99260.50;5072437;28;20058;-58
2021/07/22 08:30:44;;;;;;;0.00;0.00;;;;;;;31.82;17.78;99277.53;5072109;28;20052;-58
2021/07/22 08:33:10;;;;;;;0.00;0.00;;;;;;;31.77;17.96;99282.81;5072636;28;20067;-57
2021/07/22 08:35:36;;;;;;;0.00;0.00;;;;;;;31.69;17.55;99277.75;5072212;28;20059;-59
2021/07/22 08:38:02;;;;;;;0.00;0.00;;;;;;;31.56;17.56;99287.94;5072173;28;20126;-58
2021/07/22 08:40:28;;;;;;;0.10;0.10;;;;;;;31.37;17.66;99269.13;5072425;28;20090;-58
2021/07/22 08:42:59;;;;;;;0.10;0.10;;;;;;;31.32;17.76;99265.47;5071979;28;20057;-58
2021/07/22 08:45:25;;;;;;;0.00;0.00;;;;;;;31.24;17.75;99279.31;5054221;28;20430;-58
2021/07/22 08:47:51;;;;;;;0.00;0.00;;;;;;;31.15;17.72;99265.31;5071741;28;20055;-58
2021/07/22 08:50:18;;;;;;;0.10;0.10;;;;;;;31.02;17.83;99243.97;5054204;28;20132;-58
2021/07/22 08:52:44;;;;;;;0.00;0.00;;;;;;;30.99;18.22;99260.59;5071674;28;20056;-57
2021/07/22 08:55:10;;;;;;;0.00;0.00;;;;;;;30.91;18.23;99259.03;5071879;28;20087;-58
2021/07/22 08:57:37;;;;;;;0.40;0.40;;;;;;;30.84;18.25;99261.00;5071714;28;20179;-58
2021/07/22 09:00:06;;;;;;;0.10;0.10;;;;;;;30.85;18.39;99284.22;5054201;28;20080;-56
2021/07/22 09:02:32;;;;;;;0.15;0.15;;;;;;;30.78;18.53;99278.09;5053933;28;20044;-59
2021/07/22 09:05:00;;;;;;;0.00;0.00;;;;;;;30.75;18.34;99281.25;5070901;28;20040;-59
2021/07/22 09:07:26;;;;;;;0.00;0.00;;;;;;;30.71;18.66;99273.84;5071730;28;20056;-57
2021/07/22 09:10:05;;;;;;;0.00;0.00;;;;;;;30.69;18.50;99271.38;5071605;28;20106;-57
2021/07/22 09:12:44;;;;;;;0.00;0.00;;;;;;;30.70;18.58;99269.47;5071635;28;20056;-56
2021/07/22 09:15:12;;;;;;;0.00;0.00;;;;;;;30.65;18.64;99263.97;5071516;28;20044;-58
2021/07/22 09:17:38;;;;;;;0.00;0.00;;;;;;;30.67;18.69;99278.84;5071288;28;20052;-58
2021/07/22 09:20:09;;;;;;;0.10;0.10;;;;;;;30.67;18.79;99269.94;5071588;28;20060;-58
2021/07/22 09:22:39;;;;;;;0.00;0.00;;;;;;;30.69;18.80;99265.16;5071626;28;20052;-59
2021/07/22 09:25:05;;;;;;;0.60;0.32;;;;;;;30.67;18.97;99273.47;5071321;28;20044;-58
2021/07/22 09:27:35;;;;;;;0.20;0.20;;;;;;;30.69;19.03;99266.00;5071214;28;20147;-58
2021/07/22 09:30:02;;;;;;;0.10;0.10;;;;;;;30.70;19.01;99267.63;5071356;28;20048;-57
2021/07/22 09:32:35;;;;;;;0.10;0.10;;;;;;;30.67;19.07;99269.94;5053231;28;20201;-58
2021/07/22 09:35:14;;;;;;;0.00;0.00;;;;;;;30.67;19.11;99268.06;5071009;28;20142;-58
2021/07/22 09:37:50;;;;;;;0.10;0.10;;;;;;;30.65;19.14;99258.56;5069567;28;20044;-57
2021/07/22 09:40:18;;;;;;;0.00;0.00;;;;;;;30.62;19.28;99265.25;5071300;28;20563;-58
2021/07/22 09:42:46;;;;;;;0.00;0.00;;;;;;;30.58;19.30;99264.06;5070832;28;20501;-57
2021/07/22 09:45:19;;;;;;;0.00;0.00;;;;;;;30.54;19.44;99270.13;5071240;28;20098;-56
2021/07/22 09:47:45;;;;;;;0.10;0.10;;;;;;;30.58;19.34;99265.91;5052868;28;20070;-57
2021/07/22 09:50:16;;;;;;;0.00;0.00;;;;;;;30.56;19.35;99276.13;5071044;28;20060;-56
2021/07/22 09:52:43;;;;;;;0.00;0.00;;;;;;;30.52;19.42;99266.84;5070684;28;20134;-57
2021/07/22 09:55:25;;;;;;;0.10;0.10;;;;;;;30.58;19.44;99266.75;5070897;28;20088;-58
2021/07/22 09:57:58;;;;;;;0.10;0.10;;;;;;;30.58;19.22;99261.34;5052397;28;20037;-57
2021/07/22 10:00:25;;;;;;;0.00;0.00;;;;;;;30.64;19.25;99254.22;5052874;28;20102;-56
2021/07/22 10:02:52;;;;;;;0.00;0.00;;;;;;;30.64;19.44;99265.00;5070401;28;20049;-58
2021/07/22 10:05:19;;;;;;;0.00;0.00;;;;;;;30.64;19.19;99257.75;5070512;28;20076;-58
2021/07/22 10:07:45;;;;;;;0.03;0.03;;;;;;;30.61;19.46;99247.41;5052343;28;20135;-58
2021/07/22 10:10:12;;;;;;;0.10;0.10;;;;;;;30.56;19.58;99259.94;5052774;28;20059;-58
2021/07/22 10:12:49;;;;;;;0.00;0.00;;;;;;;30.47;19.60;99254.03;5070398;28;20104;-58
2021/07/22 10:15:15;;;;;;;0.00;0.00;;;;;;;30.38;19.70;99233.81;5052707;28;20048;-58
2021/07/22 10:17:42;;;;;;;0.00;0.00;;;;;;;30.36;19.59;99252.09;5052462;28;20498;-58
2021/07/22 10:20:11;;;;;;;0.00;0.00;;;;;;;30.37;19.60;99261.78;5070359;28;20052;-57
2021/07/22 10:22:37;;;;;;;0.00;0.00;;;;;;;30.30;19.73;99250.28;5052700;28;20064;-58
2021/07/22 10:25:06;;;;;;;0.00;0.00;;;;;;;30.34;19.70;99273.03;5036335;28;20139;-57
2021/07/22 10:27:33;;;;;;;0.00;0.00;;;;;;;30.34;19.44;99268.47;5070143;28;20518;-58
2021/07/22 10:30:04;;;;;;;0.00;0.00;;;;;;;30.31;19.59;99262.69;5052163;28;20519;-58
2021/07/22 10:32:31;;;;;;;0.00;0.00;;;;;;;30.32;19.53;99269.75;5037839;28;20098;-58
2021/07/22 10:34:58;;;;;;;0.00;0.00;;;;;;;30.28;19.77;99271.22;5070587;28;20055;-55
2021/07/22 10:37:25;;;;;;;0.10;0.10;;;;;;;30.25;19.61;99269.81;5052564;28;20060;-56
2021/07/22 10:40:05;;;;;;;0.20;0.20;;;;;;;30.23;19.79;99261.16;5035795;28;20472;-54
2021/07/22 10:42:42;;;;;;;0.10;0.10;;;;;;;30.20;19.74;99275.03;5052721;28;20053;-59
2021/07/22 10:45:21;;;;;;;0.00;0.00;;;;;;;30.17;19.72;99272.00;5070595;28;20491;-58
2021/07/22 10:48:01;;;;;;;0.00;0.00;;;;;;;30.14;19.96;99269.75;5051906;28;20053;-58
2021/07/22 10:50:40;;;;;;;0.10;0.10;;;;;;;30.14;19.92;99284.03;5070351;28;20114;-58
2021/07/22 10:53:06;;;;;;;0.10;0.10;;;;;;;30.09;20.09;99269.59;5070275;28;20052;-58
2021/07/22 10:55:58;;;;;;;0.00;0.00;;;;;;;30.12;20.05;99278.06;5052175;28;20044;-55
2021/07/22 10:58:24;;;;;;;0.10;0.10;;;;;;;30.10;19.98;99271.25;5066635;28;20055;-57
2021/07/22 11:00:51;;;;;;;0.10;0.10;;;;;;;30.09;19.85;99280.38;5069435;28;20052;-58
2021/07/22 11:03:35;;;;;;;0.00;0.00;;;;;;;30.07;19.98;99287.84;5069813;28;20037;-60
2021/07/22 11:06:02;;;;;;;0.10;0.10;;;;;;;30.06;19.71;99281.66;5069620;28;20514;-58
2021/07/22 11:08:29;;;;;;;0.05;0.05;;;;;;;30.05;19.78;99279.16;5069512;28;20052;-59
2021/07/22 11:11:02;;;;;;;0.00;0.00;;;;;;;30.00;20.03;99285.22;5069427;28;20044;-58
2021/07/22 11:13:39;;;;;;;0.00;0.00;;;;;;;29.98;19.80;99277.38;5069423;28;20046;-57
2021/07/22 11:16:09;;;;;;;0.00;0.00;;;;;;;29.97;19.85;99264.13;5051364;28;20048;-58
2021/07/22 11:18:44;;;;;;;0.00;0.00;;;;;;;29.94;19.79;99273.47;5069252;28;20451;-58
2021/07/22 11:21:23;;;;;;;0.00;0.00;;;;;;;29.92;19.97;99267.50;5069508;28;20524;-58
2021/07/22 11:23:55;;;;;;;0.10;0.10;;;;;;;29.92;19.92;99258.59;5069238;28;20542;-58
2021/07/22 11:26:35;;;;;;;0.00;0.00;;;;;;;29.89;19.92;99254.47;5069610;28;20044;-59
2021/07/22 11:29:02;;;;;;;0.00;0.00;;;;;;;29.91;19.89;99265.84;5052354;28;20047;-58
2021/07/22 11:31:33;;;;;;;0.00;0.00;;;;;;;29.88;19.82;99274.38;5035043;28;20460;-61
2021/07/22 11:34:02;;;;;;;0.00;0.00;;;;;;;29.92;19.75;99270.19;5052017;28;20078;-58
2021/07/22 11:36:30;;;;;;;21.50;0.65;;;;;;;29.93;19.66;99271.00;5070430;28;20052;-59
2021/07/22 11:38:56;;;;;;;0.10;0.10;;;;;;;29.94;19.53;99261.91;5073200;28;20045;-60
2021/07/22 11:41:22;;;;;;;0.00;0.00;;;;;;;29.96;19.77;99281.34;5038499;28;20131;-59
2021/07/22 11:43:55;;;;;;;0.00;0.00;;;;;;;29.96;19.63;99270.56;5073081;28;20049;-59
2021/07/22 11:46:44;;;;;;;0.10;0.10;;;;;;;30.03;19.64;99263.25;5073511;28;20096;-60
2021/07/22 11:49:19;;;;;;;0.10;0.10;;;;;;;29.98;19.49;99238.84;5073349;28;20146;-59